sensor_id;sensor_type;location;lat;lon;timestamp;P1;durP1;ratioP1;P2;durP2;ratioP2
67564;SDS011;54393;53.556;49.216;2023-06-26T00:01:27;2.30;;;2.20;;
67564;SDS011;54393;53.556;49.216;2023-06-26T00:03:57;2.15;;;2.05;;
67564;SDS011;54393;53.556;49.216;2023-06-26T00:06:24;2.72;;;2.53;;
67564;SDS011;54393;53.556;49.216;2023-06-26T00:08:51;2.83;;;2.62;;
67564;SDS011;54393;53.556;49.216;2023-06-26T00:11:19;2.47;;;2.37;;
67564;SDS011;54393;53.556;49.216;2023-06-26T00:13:46;2.80;;;2.60;;
67564;SDS011;54393;53.556;49.216;2023-06-26T00:16:12;2.42;;;2.28;;
67564;SDS011;54393;53.556;49.216;2023-06-26T00:18:39;2.08;;;1.98;;
67564;SDS011;54393;53.556;49.216;2023-06-26T00:21:05;2.40;;;2.30;;
67564;SDS011;54393;53.556;49.216;2023-06-26T00:23:31;3.12;;;2.35;;
67564;SDS011;54393;53.556;49.216;2023-06-26T00:26:03;2.20;;;2.10;;
67564;SDS011;54393;53.556;49.216;2023-06-26T00:28:29;3.17;;;2.53;;
67564;SDS011;54393;53.556;49.216;2023-06-26T00:30:56;2.37;;;2.17;;
67564;SDS011;54393;53.556;49.216;2023-06-26T00:33:22;2.50;;;2.40;;
67564;SDS011;54393;53.556;49.216;2023-06-26T00:35:48;2.35;;;2.25;;
67564;SDS011;54393;53.556;49.216;2023-06-26T00:38:15;2.50;;;2.40;;
67564;SDS011;54393;53.556;49.216;2023-06-26T00:40:42;2.42;;;2.33;;
67564;SDS011;54393;53.556;49.216;2023-06-26T00:43:09;2.30;;;2.20;;
67564;SDS011;54393;53.556;49.216;2023-06-26T00:45:35;2.60;;;2.40;;
67564;SDS011;54393;53.556;49.216;2023-06-26T00:48:02;2.22;;;2.12;;
67564;SDS011;54393;53.556;49.216;2023-06-26T00:50:29;2.25;;;2.05;;
67564;SDS011;54393;53.556;49.216;2023-06-26T00:52:55;2.55;;;2.35;;
67564;SDS011;54393;53.556;49.216;2023-06-26T00:55:26;2.30;;;2.20;;
67564;SDS011;54393;53.556;49.216;2023-06-26T00:57:53;2.45;;;2.25;;
67564;SDS011;54393;53.556;49.216;2023-06-26T01:00:20;2.53;;;2.40;;
67564;SDS011;54393;53.556;49.216;2023-06-26T01:02:46;2.40;;;2.20;;
67564;SDS011;54393;53.556;49.216;2023-06-26T01:05:13;2.05;;;1.95;;
67564;SDS011;54393;53.556;49.216;2023-06-26T01:07:48;2.58;;;2.37;;
67564;SDS011;54393;53.556;49.216;2023-06-26T01:10:16;2.10;;;2.00;;
67564;SDS011;54393;53.556;49.216;2023-06-26T01:12:43;1.95;;;1.80;;
67564;SDS011;54393;53.556;49.216;2023-06-26T01:15:09;2.37;;;2.17;;
67564;SDS011;54393;53.556;49.216;2023-06-26T01:17:37;2.37;;;2.25;;
67564;SDS011;54393;53.556;49.216;2023-06-26T01:20:04;2.33;;;2.12;;
67564;SDS011;54393;53.556;49.216;2023-06-26T01:22:58;2.30;;;2.20;;
67564;SDS011;54393;53.556;49.216;2023-06-26T01:25:23;2.22;;;2.12;;
67564;SDS011;54393;53.556;49.216;2023-06-26T01:28:04;2.42;;;2.30;;
67564;SDS011;54393;53.556;49.216;2023-06-26T01:30:32;2.20;;;2.10;;
67564;SDS011;54393;53.556;49.216;2023-06-26T01:33:10;2.15;;;2.05;;
67564;SDS011;54393;53.556;49.216;2023-06-26T01:35:37;2.22;;;2.12;;
67564;SDS011;54393;53.556;49.216;2023-06-26T01:38:14;2.40;;;2.20;;
67564;SDS011;54393;53.556;49.216;2023-06-26T01:40:45;1.80;;;1.70;;
67564;SDS011;54393;53.556;49.216;2023-06-26T01:43:27;2.53;;;2.35;;
67564;SDS011;54393;53.556;49.216;2023-06-26T01:46:14;2.70;;;2.50;;
67564;SDS011;54393;53.556;49.216;2023-06-26T01:51:55;2.30;;;2.20;;
67564;SDS011;54393;53.556;49.216;2023-06-26T01:54:29;2.55;;;2.35;;
67564;SDS011;54393;53.556;49.216;2023-06-26T01:56:59;2.10;;;2.00;;
67564;SDS011;54393;53.556;49.216;2023-06-26T01:59:26;2.65;;;2.45;;
67564;SDS011;54393;53.556;49.216;2023-06-26T02:01:54;2.50;;;2.30;;
67564;SDS011;54393;53.556;49.216;2023-06-26T02:04:20;1.92;;;1.83;;
67564;SDS011;54393;53.556;49.216;2023-06-26T02:06:46;2.30;;;2.20;;
67564;SDS011;54393;53.556;49.216;2023-06-26T02:09:13;2.45;;;2.25;;
67564;SDS011;54393;53.556;49.216;2023-06-26T02:11:40;2.40;;;2.30;;
67564;SDS011;54393;53.556;49.216;2023-06-26T02:14:06;1.95;;;1.85;;
67564;SDS011;54393;53.556;49.216;2023-06-26T02:16:34;1.87;;;1.77;;
67564;SDS011;54393;53.556;49.216;2023-06-26T02:19:00;2.20;;;2.10;;
67564;SDS011;54393;53.556;49.216;2023-06-26T02:21:27;2.22;;;2.10;;
67564;SDS011;54393;53.556;49.216;2023-06-26T02:23:53;2.10;;;2.00;;
67564;SDS011;54393;53.556;49.216;2023-06-26T02:26:20;2.00;;;1.90;;
67564;SDS011;54393;53.556;49.216;2023-06-26T02:28:46;2.95;;;2.50;;
67564;SDS011;54393;53.556;49.216;2023-06-26T02:31:13;2.30;;;2.20;;
67564;SDS011;54393;53.556;49.216;2023-06-26T02:33:41;2.42;;;2.28;;
67564;SDS011;54393;53.556;49.216;2023-06-26T02:36:07;2.25;;;2.12;;
67564;SDS011;54393;53.556;49.216;2023-06-26T02:38:34;2.30;;;2.05;;
67564;SDS011;54393;53.556;49.216;2023-06-26T02:41:00;2.33;;;2.22;;
67564;SDS011;54393;53.556;49.216;2023-06-26T02:43:27;2.30;;;2.20;;
67564;SDS011;54393;53.556;49.216;2023-06-26T02:45:53;2.45;;;2.25;;
67564;SDS011;54393;53.556;49.216;2023-06-26T02:48:23;2.28;;;2.17;;
67564;SDS011;54393;53.556;49.216;2023-06-26T02:50:49;2.08;;;1.98;;
67564;SDS011;54393;53.556;49.216;2023-06-26T02:53:16;2.25;;;2.15;;
67564;SDS011;54393;53.556;49.216;2023-06-26T02:55:42;2.50;;;2.35;;
67564;SDS011;54393;53.556;49.216;2023-06-26T02:58:08;2.33;;;2.12;;
67564;SDS011;54393;53.556;49.216;2023-06-26T03:00:35;2.10;;;2.00;;
67564;SDS011;54393;53.556;49.216;2023-06-26T03:03:06;2.40;;;2.20;;
67564;SDS011;54393;53.556;49.216;2023-06-26T03:05:33;2.60;;;2.10;;
67564;SDS011;54393;53.556;49.216;2023-06-26T03:07:59;2.10;;;2.00;;
67564;SDS011;54393;53.556;49.216;2023-06-26T03:10:27;2.30;;;2.10;;
67564;SDS011;54393;53.556;49.216;2023-06-26T03:12:53;2.42;;;2.33;;
67564;SDS011;54393;53.556;49.216;2023-06-26T03:15:20;2.50;;;2.30;;
67564;SDS011;54393;53.556;49.216;2023-06-26T03:17:46;2.03;;;1.92;;
67564;SDS011;54393;53.556;49.216;2023-06-26T03:20:13;2.10;;;2.00;;
67564;SDS011;54393;53.556;49.216;2023-06-26T03:22:40;2.15;;;2.00;;
67564;SDS011;54393;53.556;49.216;2023-06-26T03:25:07;2.08;;;1.98;;
67564;SDS011;54393;53.556;49.216;2023-06-26T03:27:33;2.00;;;1.90;;
67564;SDS011;54393;53.556;49.216;2023-06-26T03:30:00;2.22;;;2.12;;
67564;SDS011;54393;53.556;49.216;2023-06-26T03:32:26;2.50;;;2.30;;
67564;SDS011;54393;53.556;49.216;2023-06-26T03:34:53;2.47;;;2.28;;
67564;SDS011;54393;53.556;49.216;2023-06-26T03:37:19;2.33;;;2.22;;
67564;SDS011;54393;53.556;49.216;2023-06-26T03:39:46;2.50;;;2.30;;
67564;SDS011;54393;53.556;49.216;2023-06-26T03:42:12;2.33;;;2.12;;
67564;SDS011;54393;53.556;49.216;2023-06-26T03:44:39;2.20;;;2.10;;
67564;SDS011;54393;53.556;49.216;2023-06-26T03:47:05;2.42;;;2.22;;
67564;SDS011;54393;53.556;49.216;2023-06-26T03:49:32;2.25;;;2.05;;
67564;SDS011;54393;53.556;49.216;2023-06-26T03:51:58;2.47;;;2.30;;
67564;SDS011;54393;53.556;49.216;2023-06-26T03:54:25;2.37;;;2.17;;
67564;SDS011;54393;53.556;49.216;2023-06-26T03:56:51;2.35;;;2.22;;
67564;SDS011;54393;53.556;49.216;2023-06-26T03:59:17;2.10;;;2.00;;
67564;SDS011;54393;53.556;49.216;2023-06-26T04:01:44;2.35;;;2.22;;
67564;SDS011;54393;53.556;49.216;2023-06-26T04:04:11;2.30;;;2.17;;
67564;SDS011;54393;53.556;49.216;2023-06-26T04:06:37;2.30;;;2.12;;
67564;SDS011;54393;53.556;49.216;2023-06-26T04:09:04;2.25;;;2.15;;
67564;SDS011;54393;53.556;49.216;2023-06-26T04:11:31;2.53;;;2.20;;
67564;SDS011;54393;53.556;49.216;2023-06-26T04:13:57;2.87;;;2.37;;
67564;SDS011;54393;53.556;49.216;2023-06-26T04:16:25;2.20;;;2.10;;
67564;SDS011;54393;53.556;49.216;2023-06-26T04:18:51;2.45;;;2.35;;
67564;SDS011;54393;53.556;49.216;2023-06-26T04:21:18;2.53;;;2.33;;
67564;SDS011;54393;53.556;49.216;2023-06-26T04:23:45;2.42;;;2.22;;
67564;SDS011;54393;53.556;49.216;2023-06-26T04:26:12;2.90;;;2.47;;
67564;SDS011;54393;53.556;49.216;2023-06-26T04:28:39;6.03;;;2.30;;
67564;SDS011;54393;53.556;49.216;2023-06-26T04:31:07;2.30;;;2.20;;
67564;SDS011;54393;53.556;49.216;2023-06-26T04:33:34;3.55;;;2.70;;
67564;SDS011;54393;53.556;49.216;2023-06-26T04:36:02;2.87;;;2.40;;
67564;SDS011;54393;53.556;49.216;2023-06-26T04:38:29;2.72;;;2.30;;
67564;SDS011;54393;53.556;49.216;2023-06-26T04:40:56;3.55;;;2.47;;
67564;SDS011;54393;53.556;49.216;2023-06-26T04:43:23;3.40;;;2.45;;
67564;SDS011;54393;53.556;49.216;2023-06-26T04:45:49;4.07;;;2.35;;
67564;SDS011;54393;53.556;49.216;2023-06-26T04:48:16;3.42;;;2.53;;
67564;SDS011;54393;53.556;49.216;2023-06-26T04:50:42;4.90;;;2.60;;
67564;SDS011;54393;53.556;49.216;2023-06-26T04:53:17;3.58;;;2.47;;
67564;SDS011;54393;53.556;49.216;2023-06-26T04:55:44;5.70;;;2.83;;
67564;SDS011;54393;53.556;49.216;2023-06-26T04:58:11;2.67;;;2.47;;
67564;SDS011;54393;53.556;49.216;2023-06-26T05:00:37;7.57;;;2.42;;
67564;SDS011;54393;53.556;49.216;2023-06-26T05:03:08;2.97;;;2.47;;
67564;SDS011;54393;53.556;49.216;2023-06-26T05:05:37;4.70;;;2.62;;
67564;SDS011;54393;53.556;49.216;2023-06-26T05:08:23;3.20;;;2.12;;
67564;SDS011;54393;53.556;49.216;2023-06-26T05:10:51;4.93;;;2.67;;
67564;SDS011;54393;53.556;49.216;2023-06-26T05:13:23;2.90;;;2.70;;
67564;SDS011;54393;53.556;49.216;2023-06-26T05:15:53;2.87;;;2.58;;
67564;SDS011;54393;53.556;49.216;2023-06-26T05:18:19;3.10;;;2.85;;
67564;SDS011;54393;53.556;49.216;2023-06-26T05:20:46;4.25;;;2.42;;
67564;SDS011;54393;53.556;49.216;2023-06-26T05:23:13;5.47;;;2.70;;
67564;SDS011;54393;53.556;49.216;2023-06-26T05:25:39;2.87;;;2.10;;
67564;SDS011;54393;53.556;49.216;2023-06-26T05:28:06;4.43;;;2.50;;
67564;SDS011;54393;53.556;49.216;2023-06-26T05:30:37;3.85;;;2.55;;
67564;SDS011;54393;53.556;49.216;2023-06-26T05:33:04;2.83;;;2.55;;
67564;SDS011;54393;53.556;49.216;2023-06-26T05:35:31;2.60;;;2.40;;
67564;SDS011;54393;53.556;49.216;2023-06-26T05:37:58;3.47;;;2.45;;
67564;SDS011;54393;53.556;49.216;2023-06-26T05:40:25;5.12;;;2.60;;
67564;SDS011;54393;53.556;49.216;2023-06-26T05:42:52;2.65;;;2.20;;
67564;SDS011;54393;53.556;49.216;2023-06-26T05:45:18;4.55;;;2.53;;
67564;SDS011;54393;53.556;49.216;2023-06-26T05:47:45;2.42;;;2.22;;
67564;SDS011;54393;53.556;49.216;2023-06-26T05:50:12;2.60;;;2.40;;
67564;SDS011;54393;53.556;49.216;2023-06-26T05:52:39;2.28;;;2.08;;
67564;SDS011;54393;53.556;49.216;2023-06-26T05:55:05;3.10;;;2.70;;
67564;SDS011;54393;53.556;49.216;2023-06-26T05:57:32;3.05;;;2.58;;
67564;SDS011;54393;53.556;49.216;2023-06-26T06:00:00;3.08;;;2.87;;
67564;SDS011;54393;53.556;49.216;2023-06-26T06:02:28;3.83;;;2.28;;
67564;SDS011;54393;53.556;49.216;2023-06-26T06:04:54;3.30;;;2.80;;
67564;SDS011;54393;53.556;49.216;2023-06-26T06:07:21;2.83;;;2.58;;
67564;SDS011;54393;53.556;49.216;2023-06-26T06:09:47;3.53;;;2.60;;
67564;SDS011;54393;53.556;49.216;2023-06-26T06:12:14;3.50;;;2.70;;
67564;SDS011;54393;53.556;49.216;2023-06-26T06:14:40;4.75;;;3.25;;
67564;SDS011;54393;53.556;49.216;2023-06-26T06:17:06;4.37;;;2.67;;
67564;SDS011;54393;53.556;49.216;2023-06-26T06:19:33;5.53;;;2.90;;
67564;SDS011;54393;53.556;49.216;2023-06-26T06:21:59;4.28;;;2.87;;
67564;SDS011;54393;53.556;49.216;2023-06-26T06:24:26;4.00;;;3.15;;
67564;SDS011;54393;53.556;49.216;2023-06-26T06:26:52;3.47;;;3.10;;
67564;SDS011;54393;53.556;49.216;2023-06-26T06:29:19;3.15;;;2.37;;
67564;SDS011;54393;53.556;49.216;2023-06-26T06:31:45;3.17;;;2.87;;
67564;SDS011;54393;53.556;49.216;2023-06-26T06:34:12;2.85;;;2.65;;
67564;SDS011;54393;53.556;49.216;2023-06-26T06:36:38;3.90;;;2.92;;
67564;SDS011;54393;53.556;49.216;2023-06-26T06:39:05;4.12;;;3.60;;
67564;SDS011;54393;53.556;49.216;2023-06-26T06:41:31;3.40;;;3.10;;
67564;SDS011;54393;53.556;49.216;2023-06-26T06:43:57;6.37;;;3.10;;
67564;SDS011;54393;53.556;49.216;2023-06-26T06:46:24;5.80;;;3.00;;
67564;SDS011;54393;53.556;49.216;2023-06-26T06:48:52;4.85;;;3.55;;
67564;SDS011;54393;53.556;49.216;2023-06-26T06:51:19;6.37;;;3.25;;
67564;SDS011;54393;53.556;49.216;2023-06-26T06:53:45;4.15;;;3.22;;
67564;SDS011;54393;53.556;49.216;2023-06-26T06:56:12;6.55;;;3.33;;
67564;SDS011;54393;53.556;49.216;2023-06-26T06:58:38;3.67;;;3.37;;
67564;SDS011;54393;53.556;49.216;2023-06-26T07:01:06;3.60;;;2.92;;
67564;SDS011;54393;53.556;49.216;2023-06-26T07:03:36;5.50;;;3.55;;
67564;SDS011;54393;53.556;49.216;2023-06-26T07:06:02;6.05;;;3.55;;
67564;SDS011;54393;53.556;49.216;2023-06-26T07:08:29;3.67;;;3.33;;
67564;SDS011;54393;53.556;49.216;2023-06-26T07:10:55;6.00;;;3.08;;
67564;SDS011;54393;53.556;49.216;2023-06-26T07:13:22;7.40;;;3.20;;
67564;SDS011;54393;53.556;49.216;2023-06-26T07:15:49;6.32;;;3.12;;
67564;SDS011;54393;53.556;49.216;2023-06-26T07:18:15;5.18;;;3.22;;
67564;SDS011;54393;53.556;49.216;2023-06-26T07:20:42;6.87;;;3.22;;
67564;SDS011;54393;53.556;49.216;2023-06-26T07:23:08;4.22;;;3.33;;
67564;SDS011;54393;53.556;49.216;2023-06-26T07:25:35;3.47;;;3.17;;
67564;SDS011;54393;53.556;49.216;2023-06-26T07:28:02;5.43;;;3.53;;
67564;SDS011;54393;53.556;49.216;2023-06-26T07:30:28;3.70;;;3.40;;
67564;SDS011;54393;53.556;49.216;2023-06-26T07:32:55;3.87;;;3.47;;
67564;SDS011;54393;53.556;49.216;2023-06-26T07:35:21;4.75;;;3.50;;
67564;SDS011;54393;53.556;49.216;2023-06-26T07:37:48;3.62;;;3.33;;
67564;SDS011;54393;53.556;49.216;2023-06-26T07:40:14;3.90;;;3.25;;
67564;SDS011;54393;53.556;49.216;2023-06-26T07:42:42;7.22;;;3.92;;
67564;SDS011;54393;53.556;49.216;2023-06-26T07:45:10;4.50;;;3.97;;
67564;SDS011;54393;53.556;49.216;2023-06-26T07:47:37;8.75;;;3.70;;
67564;SDS011;54393;53.556;49.216;2023-06-26T07:50:04;7.12;;;3.53;;
67564;SDS011;54393;53.556;49.216;2023-06-26T07:52:31;5.32;;;3.37;;
67564;SDS011;54393;53.556;49.216;2023-06-26T07:54:57;6.25;;;3.60;;
67564;SDS011;54393;53.556;49.216;2023-06-26T07:57:24;5.55;;;3.53;;
67564;SDS011;54393;53.556;49.216;2023-06-26T07:59:50;5.78;;;3.30;;
67564;SDS011;54393;53.556;49.216;2023-06-26T08:02:17;5.60;;;3.37;;
67564;SDS011;54393;53.556;49.216;2023-06-26T08:04:43;3.75;;;3.37;;
67564;SDS011;54393;53.556;49.216;2023-06-26T08:07:10;3.80;;;3.50;;
67564;SDS011;54393;53.556;49.216;2023-06-26T08:09:36;5.65;;;3.47;;
67564;SDS011;54393;53.556;49.216;2023-06-26T08:12:03;5.57;;;3.60;;
67564;SDS011;54393;53.556;49.216;2023-06-26T08:14:29;4.07;;;3.60;;
67564;SDS011;54393;53.556;49.216;2023-06-26T08:16:56;5.00;;;3.47;;
67564;SDS011;54393;53.556;49.216;2023-06-26T08:19:24;3.75;;;3.45;;
67564;SDS011;54393;53.556;49.216;2023-06-26T08:21:51;3.95;;;3.50;;
67564;SDS011;54393;53.556;49.216;2023-06-26T08:24:17;5.80;;;4.10;;
67564;SDS011;54393;53.556;49.216;2023-06-26T08:26:45;4.00;;;3.70;;
67564;SDS011;54393;53.556;49.216;2023-06-26T08:29:11;3.58;;;3.30;;
67564;SDS011;54393;53.556;49.216;2023-06-26T08:31:38;4.15;;;3.58;;
67564;SDS011;54393;53.556;49.216;2023-06-26T08:34:05;4.25;;;3.30;;
67564;SDS011;54393;53.556;49.216;2023-06-26T08:36:32;4.00;;;3.60;;
67564;SDS011;54393;53.556;49.216;2023-06-26T08:38:59;4.30;;;3.90;;
67564;SDS011;54393;53.556;49.216;2023-06-26T08:41:25;3.80;;;3.50;;
67564;SDS011;54393;53.556;49.216;2023-06-26T08:43:52;3.90;;;3.30;;
67564;SDS011;54393;53.556;49.216;2023-06-26T08:46:19;5.40;;;3.97;;
67564;SDS011;54393;53.556;49.216;2023-06-26T08:48:48;5.07;;;3.85;;
67564;SDS011;54393;53.556;49.216;2023-06-26T08:51:19;4.70;;;3.93;;
67564;SDS011;54393;53.556;49.216;2023-06-26T08:54:00;4.15;;;3.75;;
67564;SDS011;54393;53.556;49.216;2023-06-26T08:56:35;4.43;;;3.70;;
67564;SDS011;54393;53.556;49.216;2023-06-26T08:59:03;8.20;;;4.22;;
67564;SDS011;54393;53.556;49.216;2023-06-26T09:01:30;4.20;;;3.80;;
67564;SDS011;54393;53.556;49.216;2023-06-26T09:03:57;3.90;;;3.35;;
67564;SDS011;54393;53.556;49.216;2023-06-26T09:06:24;4.07;;;3.47;;
67564;SDS011;54393;53.556;49.216;2023-06-26T09:08:50;3.83;;;3.53;;
67564;SDS011;54393;53.556;49.216;2023-06-26T09:11:17;4.80;;;3.47;;
67564;SDS011;54393;53.556;49.216;2023-06-26T09:13:43;6.50;;;3.90;;
67564;SDS011;54393;53.556;49.216;2023-06-26T09:16:10;4.45;;;3.45;;
67564;SDS011;54393;53.556;49.216;2023-06-26T09:18:37;4.50;;;4.10;;
67564;SDS011;54393;53.556;49.216;2023-06-26T09:21:06;5.03;;;3.78;;
67564;SDS011;54393;53.556;49.216;2023-06-26T09:23:33;4.97;;;3.97;;
67564;SDS011;54393;53.556;49.216;2023-06-26T09:26:04;8.10;;;3.80;;
67564;SDS011;54393;53.556;49.216;2023-06-26T09:28:34;4.60;;;4.10;;
67564;SDS011;54393;53.556;49.216;2023-06-26T09:31:05;4.57;;;4.15;;
67564;SDS011;54393;53.556;49.216;2023-06-26T09:33:36;4.70;;;3.95;;
67564;SDS011;54393;53.556;49.216;2023-06-26T09:36:06;6.87;;;3.90;;
67564;SDS011;54393;53.556;49.216;2023-06-26T09:38:35;4.03;;;3.72;;
67564;SDS011;54393;53.556;49.216;2023-06-26T09:41:02;4.55;;;3.78;;
67564;SDS011;54393;53.556;49.216;2023-06-26T09:43:29;3.95;;;3.70;;
67564;SDS011;54393;53.556;49.216;2023-06-26T09:45:57;4.40;;;3.85;;
67564;SDS011;54393;53.556;49.216;2023-06-26T09:48:23;4.70;;;4.10;;
67564;SDS011;54393;53.556;49.216;2023-06-26T09:50:50;5.15;;;4.30;;
67564;SDS011;54393;53.556;49.216;2023-06-26T09:53:17;3.75;;;3.45;;
67564;SDS011;54393;53.556;49.216;2023-06-26T09:55:43;4.80;;;4.12;;
67564;SDS011;54393;53.556;49.216;2023-06-26T09:58:10;6.32;;;4.03;;
67564;SDS011;54393;53.556;49.216;2023-06-26T10:00:41;3.70;;;3.50;;
67564;SDS011;54393;53.556;49.216;2023-06-26T10:03:10;4.37;;;3.55;;
67564;SDS011;54393;53.556;49.216;2023-06-26T10:05:40;3.85;;;3.55;;
67564;SDS011;54393;53.556;49.216;2023-06-26T10:08:06;4.50;;;4.10;;
67564;SDS011;54393;53.556;49.216;2023-06-26T10:10:33;5.03;;;3.87;;
67564;SDS011;54393;53.556;49.216;2023-06-26T10:13:04;6.28;;;4.25;;
67564;SDS011;54393;53.556;49.216;2023-06-26T10:18:03;4.43;;;4.12;;
67564;SDS011;54393;53.556;49.216;2023-06-26T10:20:30;4.57;;;3.80;;
67564;SDS011;54393;53.556;49.216;2023-06-26T10:22:57;4.95;;;4.20;;
67564;SDS011;54393;53.556;49.216;2023-06-26T10:25:26;4.40;;;3.90;;
67564;SDS011;54393;53.556;49.216;2023-06-26T10:27:54;7.40;;;4.28;;
67564;SDS011;54393;53.556;49.216;2023-06-26T10:30:23;6.45;;;4.10;;
67564;SDS011;54393;53.556;49.216;2023-06-26T10:32:54;5.32;;;4.15;;
67564;SDS011;54393;53.556;49.216;2023-06-26T10:35:22;4.57;;;4.18;;
67564;SDS011;54393;53.556;49.216;2023-06-26T10:37:50;7.93;;;4.50;;
67564;SDS011;54393;53.556;49.216;2023-06-26T10:40:26;5.35;;;4.10;;
67564;SDS011;54393;53.556;49.216;2023-06-26T10:43:06;4.53;;;4.12;;
67564;SDS011;54393;53.556;49.216;2023-06-26T10:45:34;7.65;;;4.65;;
67564;SDS011;54393;53.556;49.216;2023-06-26T10:48:02;5.35;;;4.85;;
67564;SDS011;54393;53.556;49.216;2023-06-26T10:50:32;5.85;;;5.00;;
67564;SDS011;54393;53.556;49.216;2023-06-26T10:53:15;6.10;;;5.00;;
67564;SDS011;54393;53.556;49.216;2023-06-26T10:55:56;6.68;;;5.00;;
67564;SDS011;54393;53.556;49.216;2023-06-26T10:58:33;5.55;;;5.05;;
67564;SDS011;54393;53.556;49.216;2023-06-26T11:06:29;5.72;;;5.22;;
67564;SDS011;54393;53.556;49.216;2023-06-26T11:09:06;6.03;;;5.53;;
67564;SDS011;54393;53.556;49.216;2023-06-26T11:14:18;6.20;;;5.70;;
67564;SDS011;54393;53.556;49.216;2023-06-26T11:16:48;5.90;;;5.40;;
67564;SDS011;54393;53.556;49.216;2023-06-26T11:19:16;5.75;;;5.25;;
67564;SDS011;54393;53.556;49.216;2023-06-26T11:21:43;7.57;;;6.00;;
67564;SDS011;54393;53.556;49.216;2023-06-26T11:24:11;6.82;;;5.07;;
67564;SDS011;54393;53.556;49.216;2023-06-26T11:26:39;7.68;;;5.22;;
67564;SDS011;54393;53.556;49.216;2023-06-26T11:29:06;5.53;;;5.12;;
67564;SDS011;54393;53.556;49.216;2023-06-26T11:31:33;5.68;;;5.15;;
67564;SDS011;54393;53.556;49.216;2023-06-26T11:34:03;6.15;;;5.28;;
67564;SDS011;54393;53.556;49.216;2023-06-26T11:36:34;5.78;;;5.25;;
67564;SDS011;54393;53.556;49.216;2023-06-26T11:39:02;5.87;;;5.28;;
67564;SDS011;54393;53.556;49.216;2023-06-26T11:41:34;6.00;;;5.28;;
67564;SDS011;54393;53.556;49.216;2023-06-26T11:44:01;5.47;;;5.07;;
67564;SDS011;54393;53.556;49.216;2023-06-26T11:46:29;6.80;;;5.45;;
67564;SDS011;54393;53.556;49.216;2023-06-26T11:48:56;5.65;;;5.25;;
67564;SDS011;54393;53.556;49.216;2023-06-26T11:51:23;6.00;;;5.60;;
67564;SDS011;54393;53.556;49.216;2023-06-26T11:53:52;5.93;;;5.37;;
67564;SDS011;54393;53.556;49.216;2023-06-26T11:56:18;5.75;;;5.32;;
67564;SDS011;54393;53.556;49.216;2023-06-26T11:59:04;5.95;;;5.35;;
67564;SDS011;54393;53.556;49.216;2023-06-26T12:03:58;5.07;;;4.68;;
67564;SDS011;54393;53.556;49.216;2023-06-26T12:06:29;6.10;;;5.10;;
67564;SDS011;54393;53.556;49.216;2023-06-26T12:09:01;5.53;;;4.53;;
67564;SDS011;54393;53.556;49.216;2023-06-26T12:11:31;5.60;;;5.00;;
67564;SDS011;54393;53.556;49.216;2023-06-26T12:13:58;5.90;;;5.40;;
67564;SDS011;54393;53.556;49.216;2023-06-26T12:16:26;6.05;;;5.00;;
67564;SDS011;54393;53.556;49.216;2023-06-26T12:19:00;6.18;;;5.10;;
67564;SDS011;54393;53.556;49.216;2023-06-26T12:21:28;5.55;;;4.85;;
67564;SDS011;54393;53.556;49.216;2023-06-26T12:23:59;5.47;;;5.00;;
67564;SDS011;54393;53.556;49.216;2023-06-26T12:26:26;5.75;;;5.10;;
67564;SDS011;54393;53.556;49.216;2023-06-26T12:28:53;7.12;;;5.18;;
67564;SDS011;54393;53.556;49.216;2023-06-26T12:31:32;5.32;;;4.80;;
67564;SDS011;54393;53.556;49.216;2023-06-26T12:33:59;5.80;;;5.20;;
67564;SDS011;54393;53.556;49.216;2023-06-26T12:36:26;5.18;;;4.68;;
67564;SDS011;54393;53.556;49.216;2023-06-26T12:38:53;5.57;;;4.90;;
67564;SDS011;54393;53.556;49.216;2023-06-26T12:41:19;6.40;;;4.55;;
67564;SDS011;54393;53.556;49.216;2023-06-26T12:43:49;4.70;;;4.30;;
67564;SDS011;54393;53.556;49.216;2023-06-26T12:46:20;4.87;;;4.47;;
67564;SDS011;54393;53.556;49.216;2023-06-26T12:49:00;5.18;;;4.50;;
67564;SDS011;54393;53.556;49.216;2023-06-26T12:51:26;5.12;;;4.62;;
67564;SDS011;54393;53.556;49.216;2023-06-26T12:53:53;5.72;;;4.80;;
67564;SDS011;54393;53.556;49.216;2023-06-26T12:56:19;6.43;;;4.40;;
67564;SDS011;54393;53.556;49.216;2023-06-26T12:58:46;7.68;;;4.40;;
67564;SDS011;54393;53.556;49.216;2023-06-26T13:01:16;5.93;;;4.20;;
67564;SDS011;54393;53.556;49.216;2023-06-26T13:03:45;5.50;;;4.75;;
67564;SDS011;54393;53.556;49.216;2023-06-26T13:06:11;6.12;;;4.57;;
67564;SDS011;54393;53.556;49.216;2023-06-26T13:08:39;4.80;;;4.40;;
67564;SDS011;54393;53.556;49.216;2023-06-26T13:11:06;5.55;;;4.97;;
67564;SDS011;54393;53.556;49.216;2023-06-26T13:13:32;4.37;;;4.05;;
67564;SDS011;54393;53.556;49.216;2023-06-26T13:15:59;6.50;;;4.45;;
67564;SDS011;54393;53.556;49.216;2023-06-26T13:18:25;6.60;;;4.50;;
67564;SDS011;54393;53.556;49.216;2023-06-26T13:20:52;7.45;;;4.40;;
67564;SDS011;54393;53.556;49.216;2023-06-26T13:23:18;7.37;;;4.37;;
67564;SDS011;54393;53.556;49.216;2023-06-26T13:25:45;7.05;;;3.90;;
67564;SDS011;54393;53.556;49.216;2023-06-26T13:28:12;6.20;;;4.03;;
67564;SDS011;54393;53.556;49.216;2023-06-26T13:30:38;7.70;;;4.00;;
67564;SDS011;54393;53.556;49.216;2023-06-26T13:33:05;5.53;;;4.12;;
67564;SDS011;54393;53.556;49.216;2023-06-26T13:35:31;10.27;;;4.57;;
67564;SDS011;54393;53.556;49.216;2023-06-26T13:37:58;5.95;;;4.28;;
67564;SDS011;54393;53.556;49.216;2023-06-26T13:40:24;4.97;;;3.70;;
67564;SDS011;54393;53.556;49.216;2023-06-26T13:42:51;4.57;;;4.18;;
67564;SDS011;54393;53.556;49.216;2023-06-26T13:45:17;6.45;;;3.87;;
67564;SDS011;54393;53.556;49.216;2023-06-26T13:47:44;5.82;;;3.42;;
67564;SDS011;54393;53.556;49.216;2023-06-26T13:50:10;3.95;;;3.58;;
67564;SDS011;54393;53.556;49.216;2023-06-26T13:52:37;4.78;;;3.80;;
67564;SDS011;54393;53.556;49.216;2023-06-26T13:55:03;4.28;;;3.80;;
67564;SDS011;54393;53.556;49.216;2023-06-26T13:57:30;5.03;;;3.95;;
67564;SDS011;54393;53.556;49.216;2023-06-26T13:59:57;4.40;;;3.70;;
67564;SDS011;54393;53.556;49.216;2023-06-26T14:02:23;4.68;;;3.62;;
67564;SDS011;54393;53.556;49.216;2023-06-26T14:04:54;6.60;;;3.80;;
67564;SDS011;54393;53.556;49.216;2023-06-26T14:07:20;4.70;;;3.72;;
67564;SDS011;54393;53.556;49.216;2023-06-26T14:09:47;5.03;;;3.60;;
67564;SDS011;54393;53.556;49.216;2023-06-26T14:12:13;4.57;;;3.60;;
67564;SDS011;54393;53.556;49.216;2023-06-26T14:14:40;3.55;;;3.28;;
67564;SDS011;54393;53.556;49.216;2023-06-26T14:17:07;3.90;;;3.47;;
67564;SDS011;54393;53.556;49.216;2023-06-26T14:19:35;3.80;;;3.50;;
67564;SDS011;54393;53.556;49.216;2023-06-26T14:22:02;3.90;;;3.60;;
67564;SDS011;54393;53.556;49.216;2023-06-26T14:24:29;3.62;;;3.28;;
67564;SDS011;54393;53.556;49.216;2023-06-26T14:26:56;6.57;;;3.50;;
67564;SDS011;54393;53.556;49.216;2023-06-26T14:29:22;3.83;;;3.37;;
67564;SDS011;54393;53.556;49.216;2023-06-26T14:31:49;3.25;;;2.92;;
67564;SDS011;54393;53.556;49.216;2023-06-26T14:34:15;6.22;;;3.37;;
67564;SDS011;54393;53.556;49.216;2023-06-26T14:36:41;5.25;;;3.40;;
67564;SDS011;54393;53.556;49.216;2023-06-26T14:39:08;4.47;;;3.35;;
67564;SDS011;54393;53.556;49.216;2023-06-26T14:41:35;4.87;;;3.83;;
67564;SDS011;54393;53.556;49.216;2023-06-26T14:44:01;4.05;;;3.25;;
67564;SDS011;54393;53.556;49.216;2023-06-26T14:46:28;3.78;;;3.47;;
67564;SDS011;54393;53.556;49.216;2023-06-26T14:48:54;4.22;;;3.30;;
67564;SDS011;54393;53.556;49.216;2023-06-26T14:51:21;3.78;;;3.28;;
67564;SDS011;54393;53.556;49.216;2023-06-26T14:53:47;3.95;;;3.40;;